sensor_id;sensor_type;location;lat;lon;timestamp;temperature;humidity
15426;DHT22;7812;50.072;7.036;2023-02-04T00:00:14;7.90;99.90
15426;DHT22;7812;50.072;7.036;2023-02-04T00:02:40;7.90;99.90
15426;DHT22;7812;50.072;7.036;2023-02-04T00:05:07;8.00;99.90
15426;DHT22;7812;50.072;7.036;2023-02-04T00:07:33;7.90;99.90
15426;DHT22;7812;50.072;7.036;2023-02-04T00:09:59;7.80;99.90
15426;DHT22;7812;50.072;7.036;2023-02-04T00:12:24;7.70;99.90
15426;DHT22;7812;50.072;7.036;2023-02-04T00:14:50;7.60;99.90
15426;DHT22;7812;50.072;7.036;2023-02-04T00:17:16;7.60;99.90
15426;DHT22;7812;50.072;7.036;2023-02-04T00:19:41;7.50;99.90
15426;DHT22;7812;50.072;7.036;2023-02-04T00:22:08;7.50;99.90
15426;DHT22;7812;50.072;7.036;2023-02-04T00:24:34;7.50;99.90
15426;DHT22;7812;50.072;7.036;2023-02-04T00:27:01;7.40;99.90
15426;DHT22;7812;50.072;7.036;2023-02-04T00:29:26;7.20;99.90
15426;DHT22;7812;50.072;7.036;2023-02-04T00:31:52;7.20;99.90
15426;DHT22;7812;50.072;7.036;2023-02-04T00:34:18;7.20;99.90
15426;DHT22;7812;50.072;7.036;2023-02-04T00:36:44;7.30;99.90
15426;DHT22;7812;50.072;7.036;2023-02-04T00:39:09;7.20;99.90
15426;DHT22;7812;50.072;7.036;2023-02-04T00:41:35;7.20;99.90
15426;DHT22;7812;50.072;7.036;2023-02-04T00:44:01;7.20;99.90
15426;DHT22;7812;50.072;7.036;2023-02-04T00:46:26;7.20;99.90
15426;DHT22;7812;50.072;7.036;2023-02-04T00:48:52;7.20;99.90
15426;DHT22;7812;50.072;7.036;2023-02-04T00:51:18;7.20;99.90
15426;DHT22;7812;50.072;7.036;2023-02-04T00:53:43;7.20;99.90
15426;DHT22;7812;50.072;7.036;2023-02-04T00:56:09;7.30;99.90
15426;DHT22;7812;50.072;7.036;2023-02-04T00:58:35;7.30;99.90
15426;DHT22;7812;50.072;7.036;2023-02-04T01:01:02;7.20;99.90
15426;DHT22;7812;50.072;7.036;2023-02-04T01:03:27;7.20;99.90
15426;DHT22;7812;50.072;7.036;2023-02-04T01:05:53;7.00;99.90
15426;DHT22;7812;50.072;7.036;2023-02-04T01:08:19;6.90;99.90
15426;DHT22;7812;50.072;7.036;2023-02-04T01:10:45;6.90;99.90
15426;DHT22;7812;50.072;7.036;2023-02-04T01:13:10;6.90;99.90
15426;DHT22;7812;50.072;7.036;2023-02-04T01:15:36;6.90;99.90
15426;DHT22;7812;50.072;7.036;2023-02-04T01:18:02;6.90;99.90
15426;DHT22;7812;50.072;7.036;2023-02-04T01:20:28;6.80;99.90
15426;DHT22;7812;50.072;7.036;2023-02-04T01:22:53;6.80;99.90
15426;DHT22;7812;50.072;7.036;2023-02-04T01:25:19;6.90;99.90
15426;DHT22;7812;50.072;7.036;2023-02-04T01:27:45;6.90;99.90
15426;DHT22;7812;50.072;7.036;2023-02-04T01:30:12;6.90;99.90
15426;DHT22;7812;50.072;7.036;2023-02-04T01:32:38;6.90;99.90
15426;DHT22;7812;50.072;7.036;2023-02-04T01:35:04;6.90;99.90
15426;DHT22;7812;50.072;7.036;2023-02-04T01:37:30;6.90;99.90
15426;DHT22;7812;50.072;7.036;2023-02-04T01:39:56;7.00;99.90
15426;DHT22;7812;50.072;7.036;2023-02-04T01:42:21;7.00;99.90
15426;DHT22;7812;50.072;7.036;2023-02-04T01:44:48;7.00;99.90
15426;DHT22;7812;50.072;7.036;2023-02-04T01:47:15;6.90;99.90
15426;DHT22;7812;50.072;7.036;2023-02-04T01:49:40;6.90;99.90
15426;DHT22;7812;50.072;7.036;2023-02-04T01:52:06;6.80;99.90
15426;DHT22;7812;50.072;7.036;2023-02-04T01:54:33;6.80;99.90
15426;DHT22;7812;50.072;7.036;2023-02-04T01:56:59;6.90;99.90
15426;DHT22;7812;50.072;7.036;2023-02-04T01:59:25;7.00;99.90
15426;DHT22;7812;50.072;7.036;2023-02-04T02:01:52;7.00;99.90
15426;DHT22;7812;50.072;7.036;2023-02-04T02:04:32;6.90;99.90
15426;DHT22;7812;50.072;7.036;2023-02-04T02:07:01;6.90;99.90
15426;DHT22;7812;50.072;7.036;2023-02-04T02:09:29;6.70;99.90
15426;DHT22;7812;50.072;7.036;2023-02-04T02:11:55;6.70;99.90
15426;DHT22;7812;50.072;7.036;2023-02-04T02:14:21;6.80;99.90
15426;DHT22;7812;50.072;7.036;2023-02-04T02:16:47;6.80;99.90
15426;DHT22;7812;50.072;7.036;2023-02-04T02:19:16;6.70;99.90
15426;DHT22;7812;50.072;7.036;2023-02-04T02:22:09;6.60;99.90
15426;DHT22;7812;50.072;7.036;2023-02-04T02:24:38;6.70;99.90
15426;DHT22;7812;50.072;7.036;2023-02-04T02:27:06;6.90;99.90
15426;DHT22;7812;50.072;7.036;2023-02-04T02:29:33;6.90;99.90
15426;DHT22;7812;50.072;7.036;2023-02-04T02:31:59;6.90;99.90
15426;DHT22;7812;50.072;7.036;2023-02-04T02:34:26;6.80;99.90
15426;DHT22;7812;50.072;7.036;2023-02-04T02:36:53;6.70;99.90
15426;DHT22;7812;50.072;7.036;2023-02-04T02:39:19;6.60;99.90
15426;DHT22;7812;50.072;7.036;2023-02-04T02:41:45;6.50;99.90
15426;DHT22;7812;50.072;7.036;2023-02-04T02:44:11;6.40;99.90
15426;DHT22;7812;50.072;7.036;2023-02-04T02:46:38;6.40;99.90
15426;DHT22;7812;50.072;7.036;2023-02-04T02:49:04;6.30;99.90
15426;DHT22;7812;50.072;7.036;2023-02-04T02:51:30;6.40;99.90
15426;DHT22;7812;50.072;7.036;2023-02-04T02:53:56;6.30;99.90
15426;DHT22;7812;50.072;7.036;2023-02-04T02:56:22;6.40;99.90
15426;DHT22;7812;50.072;7.036;2023-02-04T02:58:48;6.40;99.90
15426;DHT22;7812;50.072;7.036;2023-02-04T03:01:14;6.40;99.90
15426;DHT22;7812;50.072;7.036;2023-02-04T03:03:49;6.40;99.90
15426;DHT22;7812;50.072;7.036;2023-02-04T03:06:21;6.40;99.90
15426;DHT22;7812;50.072;7.036;2023-02-04T03:08:51;6.40;99.90
15426;DHT22;7812;50.072;7.036;2023-02-04T03:11:19;6.50;99.90
15426;DHT22;7812;50.072;7.036;2023-02-04T03:13:45;6.50;99.90
15426;DHT22;7812;50.072;7.036;2023-02-04T03:16:11;6.40;99.90
15426;DHT22;7812;50.072;7.036;2023-02-04T03:18:38;6.40;99.90
15426;DHT22;7812;50.072;7.036;2023-02-04T03:21:04;6.40;99.90
15426;DHT22;7812;50.072;7.036;2023-02-04T03:23:32;6.40;99.90
15426;DHT22;7812;50.072;7.036;2023-02-04T03:25:59;6.30;99.90
15426;DHT22;7812;50.072;7.036;2023-02-04T03:28:25;6.40;99.90
15426;DHT22;7812;50.072;7.036;2023-02-04T03:30:50;6.40;99.90
15426;DHT22;7812;50.072;7.036;2023-02-04T03:33:25;6.20;99.90
15426;DHT22;7812;50.072;7.036;2023-02-04T03:35:52;6.30;99.90
15426;DHT22;7812;50.072;7.036;2023-02-04T03:38:18;6.40;99.90
15426;DHT22;7812;50.072;7.036;2023-02-04T03:40:43;6.40;99.90
15426;DHT22;7812;50.072;7.036;2023-02-04T03:43:09;6.40;99.90
15426;DHT22;7812;50.072;7.036;2023-02-04T03:45:35;6.40;99.90
15426;DHT22;7812;50.072;7.036;2023-02-04T03:48:02;6.40;99.90
15426;DHT22;7812;50.072;7.036;2023-02-04T03:50:28;6.30;99.90
15426;DHT22;7812;50.072;7.036;2023-02-04T03:52:53;6.30;99.90
15426;DHT22;7812;50.072;7.036;2023-02-04T03:55:19;6.20;99.90
15426;DHT22;7812;50.072;7.036;2023-02-04T03:57:45;6.20;99.90
15426;DHT22;7812;50.072;7.036;2023-02-04T04:00:11;6.10;99.90
15426;DHT22;7812;50.072;7.036;2023-02-04T04:02:39;6.10;99.90
15426;DHT22;7812;50.072;7.036;2023-02-04T04:05:07;6.10;99.90
15426;DHT22;7812;50.072;7.036;2023-02-04T04:07:32;6.10;99.90
15426;DHT22;7812;50.072;7.036;2023-02-04T04:09:58;6.10;99.90
15426;DHT22;7812;50.072;7.036;2023-02-04T04:12:24;6.00;99.90
15426;DHT22;7812;50.072;7.036;2023-02-04T04:14:49;6.10;99.90
15426;DHT22;7812;50.072;7.036;2023-02-04T04:17:15;6.00;99.90
15426;DHT22;7812;50.072;7.036;2023-02-04T04:19:41;5.90;99.90
15426;DHT22;7812;50.072;7.036;2023-02-04T04:22:08;5.80;99.90
15426;DHT22;7812;50.072;7.036;2023-02-04T04:24:34;5.80;99.90
15426;DHT22;7812;50.072;7.036;2023-02-04T04:26:59;5.80;99.90
15426;DHT22;7812;50.072;7.036;2023-02-04T04:29:25;5.90;99.90
15426;DHT22;7812;50.072;7.036;2023-02-04T04:31:51;5.90;99.90
15426;DHT22;7812;50.072;7.036;2023-02-04T04:34:16;5.80;99.90
15426;DHT22;7812;50.072;7.036;2023-02-04T04:36:42;5.60;99.90
15426;DHT22;7812;50.072;7.036;2023-02-04T04:39:08;5.50;99.90
15426;DHT22;7812;50.072;7.036;2023-02-04T04:41:33;5.50;99.90
15426;DHT22;7812;50.072;7.036;2023-02-04T04:43:59;5.50;99.90
15426;DHT22;7812;50.072;7.036;2023-02-04T04:46:25;5.50;99.90
15426;DHT22;7812;50.072;7.036;2023-02-04T04:48:50;5.50;99.90
15426;DHT22;7812;50.072;7.036;2023-02-04T04:51:17;5.40;99.90
15426;DHT22;7812;50.072;7.036;2023-02-04T04:53:42;5.40;99.90
15426;DHT22;7812;50.072;7.036;2023-02-04T04:56:08;5.40;99.90
15426;DHT22;7812;50.072;7.036;2023-02-04T04:58:34;5.30;99.90
15426;DHT22;7812;50.072;7.036;2023-02-04T05:00:59;5.30;99.90
15426;DHT22;7812;50.072;7.036;2023-02-04T05:03:25;5.10;99.90
15426;DHT22;7812;50.072;7.036;2023-02-04T05:05:51;4.90;99.90
15426;DHT22;7812;50.072;7.036;2023-02-04T05:08:17;4.90;99.90
15426;DHT22;7812;50.072;7.036;2023-02-04T05:10:45;5.00;99.90
15426;DHT22;7812;50.072;7.036;2023-02-04T05:13:10;5.00;99.90
15426;DHT22;7812;50.072;7.036;2023-02-04T05:15:36;4.90;99.90
15426;DHT22;7812;50.072;7.036;2023-02-04T05:18:02;4.80;99.90
15426;DHT22;7812;50.072;7.036;2023-02-04T05:20:28;4.70;99.90
15426;DHT22;7812;50.072;7.036;2023-02-04T05:22:53;4.70;99.90
15426;DHT22;7812;50.072;7.036;2023-02-04T05:25:26;4.70;99.90
15426;DHT22;7812;50.072;7.036;2023-02-04T05:27:52;4.60;99.90
15426;DHT22;7812;50.072;7.036;2023-02-04T05:30:17;4.50;99.90
15426;DHT22;7812;50.072;7.036;2023-02-04T05:32:43;4.50;99.90
15426;DHT22;7812;50.072;7.036;2023-02-04T05:35:09;4.40;99.90
15426;DHT22;7812;50.072;7.036;2023-02-04T05:37:34;4.40;99.90
15426;DHT22;7812;50.072;7.036;2023-02-04T05:40:00;4.40;99.90
15426;DHT22;7812;50.072;7.036;2023-02-04T05:42:25;4.40;99.90
15426;DHT22;7812;50.072;7.036;2023-02-04T05:44:51;4.40;99.90
15426;DHT22;7812;50.072;7.036;2023-02-04T05:47:17;4.30;99.90
15426;DHT22;7812;50.072;7.036;2023-02-04T05:49:44;4.40;99.90
15426;DHT22;7812;50.072;7.036;2023-02-04T05:52:10;4.30;99.90
15426;DHT22;7812;50.072;7.036;2023-02-04T05:54:37;4.30;99.90
15426;DHT22;7812;50.072;7.036;2023-02-04T05:57:03;4.30;99.90
15426;DHT22;7812;50.072;7.036;2023-02-04T05:59:28;4.40;99.90
15426;DHT22;7812;50.072;7.036;2023-02-04T06:01:54;4.40;99.90
15426;DHT22;7812;50.072;7.036;2023-02-04T06:04:20;4.30;99.90
15426;DHT22;7812;50.072;7.036;2023-02-04T06:06:45;4.20;99.90
15426;DHT22;7812;50.072;7.036;2023-02-04T06:09:11;4.30;99.90
15426;DHT22;7812;50.072;7.036;2023-02-04T06:11:37;4.30;99.90
15426;DHT22;7812;50.072;7.036;2023-02-04T06:14:03;4.30;99.90
15426;DHT22;7812;50.072;7.036;2023-02-04T06:16:29;4.20;99.90
15426;DHT22;7812;50.072;7.036;2023-02-04T06:18:55;4.30;99.90
15426;DHT22;7812;50.072;7.036;2023-02-04T06:21:20;4.20;99.90
15426;DHT22;7812;50.072;7.036;2023-02-04T06:23:46;4.20;99.90
15426;DHT22;7812;50.072;7.036;2023-02-04T06:26:12;4.10;99.90
15426;DHT22;7812;50.072;7.036;2023-02-04T06:28:37;4.00;99.90
15426;DHT22;7812;50.072;7.036;2023-02-04T06:31:03;3.90;99.90
15426;DHT22;7812;50.072;7.036;2023-02-04T06:33:29;3.90;99.90
15426;DHT22;7812;50.072;7.036;2023-02-04T06:35:54;3.90;99.90
15426;DHT22;7812;50.072;7.036;2023-02-04T06:38:20;3.90;99.90
15426;DHT22;7812;50.072;7.036;2023-02-04T06:40:47;3.90;99.90
15426;DHT22;7812;50.072;7.036;2023-02-04T06:43:18;3.90;99.90
15426;DHT22;7812;50.072;7.036;2023-02-04T06:45:44;3.90;99.90
15426;DHT22;7812;50.072;7.036;2023-02-04T06:48:10;3.90;99.90
15426;DHT22;7812;50.072;7.036;2023-02-04T06:50:36;4.00;99.90
15426;DHT22;7812;50.072;7.036;2023-02-04T06:53:02;4.10;99.90
15426;DHT22;7812;50.072;7.036;2023-02-04T06:55:28;4.10;99.90
15426;DHT22;7812;50.072;7.036;2023-02-04T06:57:54;4.10;99.90
15426;DHT22;7812;50.072;7.036;2023-02-04T07:00:20;4.10;99.90
15426;DHT22;7812;50.072;7.036;2023-02-04T07:02:45;4.20;99.90
15426;DHT22;7812;50.072;7.036;2023-02-04T07:05:11;4.10;99.90
15426;DHT22;7812;50.072;7.036;2023-02-04T07:07:37;4.20;99.90
15426;DHT22;7812;50.072;7.036;2023-02-04T07:10:03;4.30;99.90
15426;DHT22;7812;50.072;7.036;2023-02-04T07:12:29;4.40;99.90
15426;DHT22;7812;50.072;7.036;2023-02-04T07:14:55;4.40;99.90
15426;DHT22;7812;50.072;7.036;2023-02-04T07:17:21;4.40;99.90
15426;DHT22;7812;50.072;7.036;2023-02-04T07:19:47;4.30;99.90
15426;DHT22;7812;50.072;7.036;2023-02-04T07:22:13;4.30;99.90
15426;DHT22;7812;50.072;7.036;2023-02-04T07:24:39;4.30;99.90
15426;DHT22;7812;50.072;7.036;2023-02-04T07:27:05;4.30;99.90
15426;DHT22;7812;50.072;7.036;2023-02-04T07:29:30;4.30;99.90
15426;DHT22;7812;50.072;7.036;2023-02-04T07:31:56;4.40;99.90
15426;DHT22;7812;50.072;7.036;2023-02-04T07:34:23;4.40;99.90
15426;DHT22;7812;50.072;7.036;2023-02-04T07:36:48;4.40;99.90
15426;DHT22;7812;50.072;7.036;2023-02-04T07:39:14;4.40;99.90
15426;DHT22;7812;50.072;7.036;2023-02-04T07:41:40;4.40;99.90
15426;DHT22;7812;50.072;7.036;2023-02-04T07:44:06;4.50;99.90
15426;DHT22;7812;50.072;7.036;2023-02-04T07:46:32;4.50;99.90
15426;DHT22;7812;50.072;7.036;2023-02-04T07:48:57;4.50;99.90
15426;DHT22;7812;50.072;7.036;2023-02-04T07:51:23;4.50;99.90
15426;DHT22;7812;50.072;7.036;2023-02-04T07:53:49;4.40;99.90
15426;DHT22;7812;50.072;7.036;2023-02-04T07:56:14;4.30;99.90
15426;DHT22;7812;50.072;7.036;2023-02-04T07:58:40;4.10;99.90
15426;DHT22;7812;50.072;7.036;2023-02-04T08:01:06;4.00;99.90
15426;DHT22;7812;50.072;7.036;2023-02-04T08:03:31;4.10;99.90
15426;DHT22;7812;50.072;7.036;2023-02-04T08:05:57;4.20;99.90
15426;DHT22;7812;50.072;7.036;2023-02-04T08:08:23;4.20;99.90
15426;DHT22;7812;50.072;7.036;2023-02-04T08:10:48;4.40;99.90
15426;DHT22;7812;50.072;7.036;2023-02-04T08:13:14;4.70;99.90
15426;DHT22;7812;50.072;7.036;2023-02-04T08:15:39;4.90;99.90
15426;DHT22;7812;50.072;7.036;2023-02-04T08:18:05;5.00;99.90
15426;DHT22;7812;50.072;7.036;2023-02-04T08:20:31;5.20;99.90
15426;DHT22;7812;50.072;7.036;2023-02-04T08:22:57;5.30;99.90
15426;DHT22;7812;50.072;7.036;2023-02-04T08:25:22;5.50;99.90
15426;DHT22;7812;50.072;7.036;2023-02-04T08:27:48;5.70;99.90
15426;DHT22;7812;50.072;7.036;2023-02-04T08:30:14;6.20;99.90
15426;DHT22;7812;50.072;7.036;2023-02-04T08:32:39;6.50;99.90
15426;DHT22;7812;50.072;7.036;2023-02-04T08:35:06;6.50;99.90
15426;DHT22;7812;50.072;7.036;2023-02-04T08:37:32;6.30;99.90
15426;DHT22;7812;50.072;7.036;2023-02-04T08:39:58;6.20;99.90
15426;DHT22;7812;50.072;7.036;2023-02-04T08:42:24;6.20;99.90
15426;DHT22;7812;50.072;7.036;2023-02-04T08:44:49;6.60;99.90
15426;DHT22;7812;50.072;7.036;2023-02-04T08:47:15;6.80;99.90
15426;DHT22;7812;50.072;7.036;2023-02-04T08:49:41;7.20;99.90
15426;DHT22;7812;50.072;7.036;2023-02-04T08:52:07;7.00;99.90
15426;DHT22;7812;50.072;7.036;2023-02-04T08:54:34;6.70;99.90
15426;DHT22;7812;50.072;7.036;2023-02-04T08:57:00;6.50;99.90
15426;DHT22;7812;50.072;7.036;2023-02-04T08:59:26;7.10;99.90
15426;DHT22;7812;50.072;7.036;2023-02-04T09:01:52;7.40;99.90
15426;DHT22;7812;50.072;7.036;2023-02-04T09:04:18;7.20;99.90
15426;DHT22;7812;50.072;7.036;2023-02-04T09:06:45;7.50;99.90
15426;DHT22;7812;50.072;7.036;2023-02-04T09:09:11;7.50;99.90
15426;DHT22;7812;50.072;7.036;2023-02-04T09:11:36;8.00;99.90
15426;DHT22;7812;50.072;7.036;2023-02-04T09:14:04;7.80;99.90
15426;DHT22;7812;50.072;7.036;2023-02-04T09:16:30;8.80;99.90
15426;DHT22;7812;50.072;7.036;2023-02-04T09:18:55;9.80;99.90
15426;DHT22;7812;50.072;7.036;2023-02-04T09:21:23;10.20;99.90
15426;DHT22;7812;50.072;7.036;2023-02-04T09:23:49;9.60;99.90
15426;DHT22;7812;50.072;7.036;2023-02-04T09:26:15;9.00;99.90
15426;DHT22;7812;50.072;7.036;2023-02-04T09:28:40;8.60;99.90
15426;DHT22;7812;50.072;7.036;2023-02-04T09:31:06;8.50;99.90
15426;DHT22;7812;50.072;7.036;2023-02-04T09:33:33;8.30;99.90
15426;DHT22;7812;50.072;7.036;2023-02-04T09:35:58;8.20;99.90
15426;DHT22;7812;50.072;7.036;2023-02-04T09:38:24;8.10;99.90
15426;DHT22;7812;50.072;7.036;2023-02-04T09:40:59;8.10;99.90
15426;DHT22;7812;50.072;7.036;2023-02-04T09:43:28;8.20;99.90
15426;DHT22;7812;50.072;7.036;2023-02-04T09:45:55;8.20;99.90
15426;DHT22;7812;50.072;7.036;2023-02-04T09:48:22;8.20;99.90
15426;DHT22;7812;50.072;7.036;2023-02-04T09:50:52;8.10;99.90
15426;DHT22;7812;50.072;7.036;2023-02-04T09:53:22;8.10;99.90
15426;DHT22;7812;50.072;7.036;2023-02-04T09:55:50;8.10;99.90
15426;DHT22;7812;50.072;7.036;2023-02-04T09:58:18;7.90;99.90
15426;DHT22;7812;50.072;7.036;2023-02-04T10:00:46;7.80;99.90
15426;DHT22;7812;50.072;7.036;2023-02-04T10:03:16;7.70;99.90
15426;DHT22;7812;50.072;7.036;2023-02-04T10:05:44;7.70;99.90
15426;DHT22;7812;50.072;7.036;2023-02-04T10:08:14;7.70;99.90
15426;DHT22;7812;50.072;7.036;2023-02-04T10:10:40;7.60;99.90
15426;DHT22;7812;50.072;7.036;2023-02-04T10:13:18;7.50;99.90
15426;DHT22;7812;50.072;7.036;2023-02-04T10:15:47;7.50;99.90
15426;DHT22;7812;50.072;7.036;2023-02-04T10:18:20;7.40;99.90
15426;DHT22;7812;50.072;7.036;2023-02-04T10:20:48;7.30;99.90
15426;DHT22;7812;50.072;7.036;2023-02-04T10:23:15;7.30;99.90
15426;DHT22;7812;50.072;7.036;2023-02-04T10:25:40;7.40;99.90
15426;DHT22;7812;50.072;7.036;2023-02-04T10:28:06;7.70;99.90
15426;DHT22;7812;50.072;7.036;2023-02-04T10:30:41;7.70;99.90
15426;DHT22;7812;50.072;7.036;2023-02-04T10:33:24;7.70;99.90
15426;DHT22;7812;50.072;7.036;2023-02-04T10:35:52;7.80;99.90
15426;DHT22;7812;50.072;7.036;2023-02-04T10:38:18;7.80;99.90
15426;DHT22;7812;50.072;7.036;2023-02-04T10:40:44;7.80;99.90
15426;DHT22;7812;50.072;7.036;2023-02-04T10:43:17;7.90;99.90
15426;DHT22;7812;50.072;7.036;2023-02-04T10:45:49;8.10;99.90
15426;DHT22;7812;50.072;7.036;2023-02-04T10:48:19;8.20;99.90
15426;DHT22;7812;50.072;7.036;2023-02-04T10:50:46;8.30;99.90
15426;DHT22;7812;50.072;7.036;2023-02-04T10:53:15;7.90;99.90
15426;DHT22;7812;50.072;7.036;2023-02-04T10:56:00;7.70;99.90
15426;DHT22;7812;50.072;7.036;2023-02-04T10:58:28;7.80;99.90
15426;DHT22;7812;50.072;7.036;2023-02-04T11:00:54;7.80;99.90
15426;DHT22;7812;50.072;7.036;2023-02-04T11:03:21;7.90;99.90
15426;DHT22;7812;50.072;7.036;2023-02-04T11:05:48;7.70;99.90
15426;DHT22;7812;50.072;7.036;2023-02-04T11:08:32;7.80;99.90
15426;DHT22;7812;50.072;7.036;2023-02-04T11:11:00;8.00;99.90
15426;DHT22;7812;50.072;7.036;2023-02-04T11:13:57;8.40;99.90
15426;DHT22;7812;50.072;7.036;2023-02-04T11:16:24;8.50;99.90
15426;DHT22;7812;50.072;7.036;2023-02-04T11:18:58;8.80;99.90
15426;DHT22;7812;50.072;7.036;2023-02-04T11:21:44;9.20;99.90
15426;DHT22;7812;50.072;7.036;2023-02-04T11:30:02;9.70;99.90
15426;DHT22;7812;50.072;7.036;2023-02-04T11:32:32;10.40;99.90
15426;DHT22;7812;50.072;7.036;2023-02-04T11:37:41;10.20;99.90
15426;DHT22;7812;50.072;7.036;2023-02-04T11:40:33;9.60;99.90
15426;DHT22;7812;50.072;7.036;2023-02-04T11:43:13;10.00;99.90
15426;DHT22;7812;50.072;7.036;2023-02-04T11:45:41;10.50;99.90
15426;DHT22;7812;50.072;7.036;2023-02-04T11:48:20;10.50;99.90
15426;DHT22;7812;50.072;7.036;2023-02-04T11:50:56;11.00;99.90
15426;DHT22;7812;50.072;7.036;2023-02-04T11:53:33;10.80;99.90
15426;DHT22;7812;50.072;7.036;2023-02-04T11:55:59;11.10;99.90
15426;DHT22;7812;50.072;7.036;2023-02-04T11:58:25;10.90;99.90
15426;DHT22;7812;50.072;7.036;2023-02-04T12:00:53;10.80;99.90
15426;DHT22;7812;50.072;7.036;2023-02-04T12:03:29;10.40;99.90
15426;DHT22;7812;50.072;7.036;2023-02-04T12:05:57;10.30;99.90
15426;DHT22;7812;50.072;7.036;2023-02-04T12:08:24;10.40;99.90
15426;DHT22;7812;50.072;7.036;2023-02-04T12:13:25;10.70;99.90
15426;DHT22;7812;50.072;7.036;2023-02-04T12:16:00;10.90;99.90
15426;DHT22;7812;50.072;7.036;2023-02-04T12:18:27;11.00;99.90
15426;DHT22;7812;50.072;7.036;2023-02-04T12:20:56;10.80;99.90
15426;DHT22;7812;50.072;7.036;2023-02-04T12:23:23;10.70;99.90
15426;DHT22;7812;50.072;7.036;2023-02-04T12:25:49;10.10;99.90
15426;DHT22;7812;50.072;7.036;2023-02-04T12:28:15;10.20;99.90
15426;DHT22;7812;50.072;7.036;2023-02-04T12:30:41;10.70;99.90
15426;DHT22;7812;50.072;7.036;2023-02-04T12:33:07;10.60;99.90
15426;DHT22;7812;50.072;7.036;2023-02-04T12:35:33;10.80;99.90
15426;DHT22;7812;50.072;7.036;2023-02-04T12:37:59;11.20;99.90
15426;DHT22;7812;50.072;7.036;2023-02-04T12:40:25;11.50;99.90
15426;DHT22;7812;50.072;7.036;2023-02-04T12:42:51;11.40;99.90
15426;DHT22;7812;50.072;7.036;2023-02-04T12:45:17;11.30;99.90
15426;DHT22;7812;50.072;7.036;2023-02-04T12:47:43;11.30;99.90
15426;DHT22;7812;50.072;7.036;2023-02-04T12:50:18;11.30;99.90
15426;DHT22;7812;50.072;7.036;2023-02-04T12:52:49;11.40;99.90
15426;DHT22;7812;50.072;7.036;2023-02-04T12:55:14;11.70;99.90
15426;DHT22;7812;50.072;7.036;2023-02-04T12:57:40;11.80;99.90
15426;DHT22;7812;50.072;7.036;2023-02-04T13:00:06;11.70;99.90
15426;DHT22;7812;50.072;7.036;2023-02-04T13:02:32;11.50;99.90
15426;DHT22;7812;50.072;7.036;2023-02-04T13:04:58;11.50;99.90
15426;DHT22;7812;50.072;7.036;2023-02-04T13:07:24;11.30;99.90
15426;DHT22;7812;50.072;7.036;2023-02-04T13:09:49;10.80;99.90
15426;DHT22;7812;50.072;7.036;2023-02-04T13:12:15;10.80;99.90
15426;DHT22;7812;50.072;7.036;2023-02-04T13:14:41;10.80;99.90
15426;DHT22;7812;50.072;7.036;2023-02-04T13:17:07;10.90;99.90
15426;DHT22;7812;50.072;7.036;2023-02-04T13:19:34;11.00;99.90
15426;DHT22;7812;50.072;7.036;2023-02-04T13:22:00;11.00;99.90
15426;DHT22;7812;50.072;7.036;2023-02-04T13:24:26;11.50;99.90
15426;DHT22;7812;50.072;7.036;2023-02-04T13:26:52;12.40;99.90
15426;DHT22;7812;50.072;7.036;2023-02-04T13:29:18;13.00;99.90
15426;DHT22;7812;50.072;7.036;2023-02-04T13:31:44;13.60;99.90
15426;DHT22;7812;50.072;7.036;2023-02-04T13:34:09;14.00;99.90
15426;DHT22;7812;50.072;7.036;2023-02-04T13:36:35;13.70;99.90
15426;DHT22;7812;50.072;7.036;2023-02-04T13:39:01;13.30;99.90
15426;DHT22;7812;50.072;7.036;2023-02-04T13:41:27;12.80;99.90
15426;DHT22;7812;50.072;7.036;2023-02-04T13:43:53;11.90;99.90
15426;DHT22;7812;50.072;7.036;2023-02-04T13:46:20;11.20;99.90
15426;DHT22;7812;50.072;7.036;2023-02-04T13:48:46;10.90;99.90
15426;DHT22;7812;50.072;7.036;2023-02-04T13:51:13;11.00;99.90
15426;DHT22;7812;50.072;7.036;2023-02-04T13:53:39;10.80;99.90
15426;DHT22;7812;50.072;7.036;2023-02-04T13:56:05;10.80;99.90
15426;DHT22;7812;50.072;7.036;2023-02-04T13:58:31;10.70;99.90
15426;DHT22;7812;50.072;7.036;2023-02-04T14:00:56;10.70;99.90
15426;DHT22;7812;50.072;7.036;2023-02-04T14:03:26;10.60;99.90
15426;DHT22;7812;50.072;7.036;2023-02-04T14:05:53;10.50;99.90
15426;DHT22;7812;50.072;7.036;2023-02-04T14:08:19;10.50;99.90
15426;DHT22;7812;50.072;7.036;2023-02-04T14:10:45;10.20;99.90
15426;DHT22;7812;50.072;7.036;2023-02-04T14:13:11;10.10;99.90
15426;DHT22;7812;50.072;7.036;2023-02-04T14:15:37;10.10;99.90
15426;DHT22;7812;50.072;7.036;2023-02-04T14:18:03;10.10;99.90
15426;DHT22;7812;50.072;7.036;2023-02-04T14:20:30;10.10;99.90
15426;DHT22;7812;50.072;7.036;2023-02-04T14:22:56;10.10;99.90
15426;DHT22;7812;50.072;7.036;2023-02-04T14:25:21;10.20;99.90
15426;DHT22;7812;50.072;7.036;2023-02-04T14:27:47;10.30;99.90
15426;DHT22;7812;50.072;7.036;2023-02-04T14:30:18;10.10;99.90
15426;DHT22;7812;50.072;7.036;2023-02-04T14:32:44;10.00;99.90
15426;DHT22;7812;50.072;7.036;2023-02-04T14:35:10;9.90;99.90
15426;DHT22;7812;50.072;7.036;2023-02-04T14:37:36;9.90;99.90
15426;DHT22;7812;50.072;7.036;2023-02-04T14:40:02;9.80;99.90
15426;DHT22;7812;50.072;7.036;2023-02-04T14:42:27;9.70;99.90
15426;DHT22;7812;50.072;7.036;2023-02-04T14:44:53;9.80;99.90
15426;DHT22;7812;50.072;7.036;2023-02-04T14:47:19;9.90;99.90
15426;DHT22;7812;50.072;7.036;2023-02-04T14:49:44;10.00;99.90
15426;DHT22;7812;50.072;7.036;2023-02-04T14:52:10;10.00;99.90
15426;DHT22;7812;50.072;7.036;2023-02-04T14:54:37;10.00;99.90
15426;DHT22;7812;50.072;7.036;2023-02-04T14:57:02;10.10;99.90
15426;DHT22;7812;50.072;7.036;2023-02-04T14:59:28;10.20;99.90
15426;DHT22;7812;50.072;7.036;2023-02-04T15:01:54;10.30;99.90
15426;DHT22;7812;50.072;7.036;2023-02-04T15:04:21;10.10;99.90
15426;DHT22;7812;50.072;7.036;2023-02-04T15:06:47;10.00;99.90
15426;DHT22;7812;50.072;7.036;2023-02-04T15:09:15;10.00;99.90
15426;DHT22;7812;50.072;7.036;2023-02-04T15:11:41;9.80;99.90
15426;DHT22;7812;50.072;7.036;2023-02-04T15:14:06;9.70;99.90
15426;DHT22;7812;50.072;7.036;2023-02-04T15:16:32;9.80;99.90
15426;DHT22;7812;50.072;7.036;2023-02-04T15:18:58;9.80;99.90
15426;DHT22;7812;50.072;7.036;2023-02-04T15:21:23;9.90;99.90
15426;DHT22;7812;50.072;7.036;2023-02-04T15:23:49;9.90;99.90
15426;DHT22;7812;50.072;7.036;2023-02-04T15:26:14;10.00;99.90
15426;DHT22;7812;50.072;7.036;2023-02-04T15:28:40;10.00;99.90
15426;DHT22;7812;50.072;7.036;2023-02-04T15:31:06;9.90;99.90
15426;DHT22;7812;50.072;7.036;2023-02-04T15:33:32;9.90;99.90
15426;DHT22;7812;50.072;7.036;2023-02-04T15:35:57;10.00;99.90
15426;DHT22;7812;50.072;7.036;2023-02-04T15:38:23;9.90;99.90
15426;DHT22;7812;50.072;7.036;2023-02-04T15:40:49;9.90;99.90
15426;DHT22;7812;50.072;7.036;2023-02-04T15:43:14;9.90;99.90
15426;DHT22;7812;50.072;7.036;2023-02-04T15:45:40;9.90;99.90
15426;DHT22;7812;50.072;7.036;2023-02-04T15:48:08;9.90;99.90
15426;DHT22;7812;50.072;7.036;2023-02-04T15:50:35;9.90;99.90
15426;DHT22;7812;50.072;7.036;2023-02-04T15:53:00;9.90;99.90
15426;DHT22;7812;50.072;7.036;2023-02-04T15:55:27;9.80;99.90
15426;DHT22;7812;50.072;7.036;2023-02-04T15:57:53;9.80;99.90
15426;DHT22;7812;50.072;7.036;2023-02-04T16:00:19;9.70;99.90
15426;DHT22;7812;50.072;7.036;2023-02-04T16:02:44;9.70;99.90
15426;DHT22;7812;50.072;7.036;2023-02-04T16:05:10;9.60;99.90